CYRL

Details ICAO CYRL (YRL)
Name RED LAKE
Region Canada
Timezone America/Winnipeg (UTC-5.0)
Plans Departing 3
Arriving 6
Stats Elevation 1,265 ft / 386 m (AMSL)
Location 51.066944° -93.793055°
Runways 1
Magnetic Variation 0.213° W
Sunrise 2018-05-20 10:19:33 UTC / 2018-05-20 05:19:33 Local
Sunset 2018-05-21 02:06:44 UTC / 2018-05-20 21:06:44 Local
Advertisement - Login to hide

Runways

ID Width Length Bearing (true) Bearing (mag) Surface Threshold Offset Overrun Length
08 150 ft / 46 m 5,034 ft / 1,534 m 80.72° 80.93° Asphalt 0 ft / 0 m 0 ft / 0 m
26 150 ft / 46 m 5,034 ft / 1,534 m 260.74° 260.95° Asphalt 0 ft / 0 m 0 ft / 0 m

Map

Weather


0- 5 10 15 20 25 30 35+ Temperature / ° C

Clouds and Precipitation
Forecast for 2018-05-21 00:00 UTC. Updated 3 hours ago

Ground ~20,000 ft ~40,000 ft Winds

METAR

CYRL 210100Z 23004KT 15SM SCT092 22/M01 A3005 RMK AC3 WND ESTD SLP180 DENSITY ALT 2300FT

TAF

TAF CYRL 201938Z 2020/2102 23010KT P6SM FEW030 FEW100 RMK NXT FCST WILL BE ISSUED AT 211045Z

Frequencies

Unicom 122.30 MHz CTAF
Approach 135.32 MHz WINNIPEG CNTR
Warning: Do not use this data for real-world aviation or navigation. No guarantee of current accuracy is given.